sensor_id;sensor_type;location;lat;lon;timestamp;pressure;altitude;pressure_sealevel;temperature;humidity
16016;BME280;8112;53.592;10.184;2023-03-14T00:01:43;98500.16;;;10.48;100.00
16016;BME280;8112;53.592;10.184;2023-03-14T00:06:45;98500.88;;;10.40;100.00
16016;BME280;8112;53.592;10.184;2023-03-14T00:11:49;98504.44;;;10.39;100.00
16016;BME280;8112;53.592;10.184;2023-03-14T00:16:50;98526.78;;;10.45;100.00
16016;BME280;8112;53.592;10.184;2023-03-14T00:21:52;98530.38;;;10.44;100.00
16016;BME280;8112;53.592;10.184;2023-03-14T00:26:55;98524.00;;;10.47;100.00
16016;BME280;8112;53.592;10.184;2023-03-14T00:31:57;98524.28;;;10.44;100.00
16016;BME280;8112;53.592;10.184;2023-03-14T00:36:58;98501.97;;;10.48;100.00
16016;BME280;8112;53.592;10.184;2023-03-14T00:42:02;98496.03;;;10.36;100.00
16016;BME280;8112;53.592;10.184;2023-03-14T00:47:03;98490.09;;;10.24;100.00
16016;BME280;8112;53.592;10.184;2023-03-14T00:52:05;98471.28;;;10.19;100.00
16016;BME280;8112;53.592;10.184;2023-03-14T00:57:08;98465.88;;;10.20;100.00
16016;BME280;8112;53.592;10.184;2023-03-14T01:02:10;98462.97;;;10.23;100.00
16016;BME280;8112;53.592;10.184;2023-03-14T01:07:11;98475.44;;;10.21;100.00
16016;BME280;8112;53.592;10.184;2023-03-14T01:12:15;98492.28;;;10.29;100.00
16016;BME280;8112;53.592;10.184;2023-03-14T01:17:16;98492.88;;;10.22;100.00
16016;BME280;8112;53.592;10.184;2023-03-14T01:22:18;98503.53;;;10.21;100.00
16016;BME280;8112;53.592;10.184;2023-03-14T01:27:22;98520.84;;;10.23;100.00
16016;BME280;8112;53.592;10.184;2023-03-14T01:32:25;98505.63;;;10.27;100.00
16016;BME280;8112;53.592;10.184;2023-03-14T01:37:27;98467.28;;;10.15;100.00
16016;BME280;8112;53.592;10.184;2023-03-14T01:42:30;98452.88;;;10.09;100.00
16016;BME280;8112;53.592;10.184;2023-03-14T01:47:32;98435.06;;;10.03;100.00
16016;BME280;8112;53.592;10.184;2023-03-14T01:52:36;98437.81;;;10.01;100.00
16016;BME280;8112;53.592;10.184;2023-03-14T01:57:46;98431.19;;;9.97;100.00
16016;BME280;8112;53.592;10.184;2023-03-14T02:02:53;98436.59;;;9.95;100.00
16016;BME280;8112;53.592;10.184;2023-03-14T02:07:59;98421.22;;;10.01;100.00
16016;BME280;8112;53.592;10.184;2023-03-14T02:13:11;98439.38;;;9.94;100.00
16016;BME280;8112;53.592;10.184;2023-03-14T02:18:43;98403.25;;;9.86;100.00
16016;BME280;8112;53.592;10.184;2023-03-14T02:24:09;98364.56;;;9.68;100.00
16016;BME280;8112;53.592;10.184;2023-03-14T02:29:21;98365.66;;;9.66;100.00
16016;BME280;8112;53.592;10.184;2023-03-14T02:34:24;98385.47;;;9.70;100.00
16016;BME280;8112;53.592;10.184;2023-03-14T02:39:33;98375.09;;;9.68;100.00
16016;BME280;8112;53.592;10.184;2023-03-14T02:44:48;98395.50;;;9.84;100.00
16016;BME280;8112;53.592;10.184;2023-03-14T02:49:52;98391.09;;;9.85;100.00
16016;BME280;8112;53.592;10.184;2023-03-14T02:54:56;98392.13;;;10.02;100.00
16016;BME280;8112;53.592;10.184;2023-03-14T03:00:01;98397.09;;;10.05;100.00
16016;BME280;8112;53.592;10.184;2023-03-14T03:05:09;98391.06;;;9.95;100.00
16016;BME280;8112;53.592;10.184;2023-03-14T03:10:11;98391.00;;;10.05;100.00
16016;BME280;8112;53.592;10.184;2023-03-14T03:15:14;98405.09;;;10.13;100.00
16016;BME280;8112;53.592;10.184;2023-03-14T03:20:17;98384.81;;;10.24;100.00
16016;BME280;8112;53.592;10.184;2023-03-14T03:25:18;98384.81;;;10.24;100.00
16016;BME280;8112;53.592;10.184;2023-03-14T03:30:21;98361.28;;;10.22;100.00
16016;BME280;8112;53.592;10.184;2023-03-14T03:35:24;98353.81;;;10.18;100.00
16016;BME280;8112;53.592;10.184;2023-03-14T03:40:29;98352.72;;;10.20;100.00
16016;BME280;8112;53.592;10.184;2023-03-14T03:45:32;98345.63;;;10.21;100.00
16016;BME280;8112;53.592;10.184;2023-03-14T03:50:34;98324.00;;;10.27;100.00
16016;BME280;8112;53.592;10.184;2023-03-14T03:55:36;98323.69;;;10.30;100.00
16016;BME280;8112;53.592;10.184;2023-03-14T04:00:40;98322.72;;;10.31;100.00
16016;BME280;8112;53.592;10.184;2023-03-14T04:05:42;98318.34;;;10.22;100.00
16016;BME280;8112;53.592;10.184;2023-03-14T04:10:44;98314.84;;;10.03;100.00
16016;BME280;8112;53.592;10.184;2023-03-14T04:15:54;98307.34;;;10.08;100.00
16016;BME280;8112;53.592;10.184;2023-03-14T04:21:01;98315.03;;;10.20;100.00
16016;BME280;8112;53.592;10.184;2023-03-14T04:26:12;98297.28;;;10.22;100.00
16016;BME280;8112;53.592;10.184;2023-03-14T04:31:17;98295.13;;;10.17;100.00
16016;BME280;8112;53.592;10.184;2023-03-14T04:36:20;98288.47;;;10.13;100.00
16016;BME280;8112;53.592;10.184;2023-03-14T04:41:22;98282.09;;;10.16;100.00
16016;BME280;8112;53.592;10.184;2023-03-14T04:46:25;98280.97;;;10.36;100.00
16016;BME280;8112;53.592;10.184;2023-03-14T04:51:27;98283.91;;;10.33;100.00
16016;BME280;8112;53.592;10.184;2023-03-14T04:56:29;98268.81;;;10.35;100.00
16016;BME280;8112;53.592;10.184;2023-03-14T05:01:33;98268.50;;;10.38;100.00
16016;BME280;8112;53.592;10.184;2023-03-14T05:06:53;98258.41;;;10.44;100.00
16016;BME280;8112;53.592;10.184;2023-03-14T05:12:06;98246.88;;;10.45;100.00
16016;BME280;8112;53.592;10.184;2023-03-14T05:17:36;98236.53;;;10.51;100.00
16016;BME280;8112;53.592;10.184;2023-03-14T05:23:06;98241.13;;;10.49;100.00
16016;BME280;8112;53.592;10.184;2023-03-14T05:28:23;98235.94;;;10.39;100.00
16016;BME280;8112;53.592;10.184;2023-03-14T05:33:41;98245.72;;;10.29;100.00
16016;BME280;8112;53.592;10.184;2023-03-14T05:39:05;98245.25;;;10.16;100.00
16016;BME280;8112;53.592;10.184;2023-03-14T05:44:13;98258.44;;;9.88;100.00
16016;BME280;8112;53.592;10.184;2023-03-14T05:49:54;98258.38;;;9.41;100.00
16016;BME280;8112;53.592;10.184;2023-03-14T05:55:28;98263.97;;;9.29;100.00
16016;BME280;8112;53.592;10.184;2023-03-14T06:00:42;98260.56;;;9.18;100.00
16016;BME280;8112;53.592;10.184;2023-03-14T06:06:05;98257.34;;;9.24;100.00
16016;BME280;8112;53.592;10.184;2023-03-14T06:11:07;98263.69;;;9.22;100.00
16016;BME280;8112;53.592;10.184;2023-03-14T06:16:09;98273.19;;;9.33;100.00
16016;BME280;8112;53.592;10.184;2023-03-14T06:21:12;98276.25;;;9.38;100.00
16016;BME280;8112;53.592;10.184;2023-03-14T06:26:14;98275.97;;;9.41;100.00
16016;BME280;8112;53.592;10.184;2023-03-14T06:31:16;98266.63;;;9.57;100.00
16016;BME280;8112;53.592;10.184;2023-03-14T06:36:31;98277.00;;;9.58;100.00
16016;BME280;8112;53.592;10.184;2023-03-14T06:41:33;98278.81;;;9.58;100.00
16016;BME280;8112;53.592;10.184;2023-03-14T06:46:36;98279.56;;;9.68;100.00
16016;BME280;8112;53.592;10.184;2023-03-14T06:51:39;98293.91;;;9.83;100.00
16016;BME280;8112;53.592;10.184;2023-03-14T06:56:43;98289.56;;;9.92;100.00
16016;BME280;8112;53.592;10.184;2023-03-14T07:01:45;98292.31;;;10.19;100.00
16016;BME280;8112;53.592;10.184;2023-03-14T07:06:50;98292.44;;;9.99;100.00
16016;BME280;8112;53.592;10.184;2023-03-14T07:11:52;98302.59;;;9.94;100.00
16016;BME280;8112;53.592;10.184;2023-03-14T07:16:54;98295.19;;;10.07;100.00
16016;BME280;8112;53.592;10.184;2023-03-14T07:21:57;98298.81;;;10.24;100.00
16016;BME280;8112;53.592;10.184;2023-03-14T07:27:02;98296.03;;;10.26;100.00
16016;BME280;8112;53.592;10.184;2023-03-14T07:32:03;98308.09;;;10.47;100.00
16016;BME280;8112;53.592;10.184;2023-03-14T07:37:07;98306.81;;;10.51;100.00
16016;BME280;8112;53.592;10.184;2023-03-14T07:42:09;98308.31;;;10.72;100.00
16016;BME280;8112;53.592;10.184;2023-03-14T07:47:34;98309.09;;;10.82;100.00
16016;BME280;8112;53.592;10.184;2023-03-14T07:52:37;98303.25;;;10.96;100.00
16016;BME280;8112;53.592;10.184;2023-03-14T07:57:38;98301.84;;;10.84;100.00
16016;BME280;8112;53.592;10.184;2023-03-14T08:02:40;98294.94;;;10.83;100.00
16016;BME280;8112;53.592;10.184;2023-03-14T08:07:43;98304.41;;;10.76;100.00
16016;BME280;8112;53.592;10.184;2023-03-14T08:12:45;98312.97;;;10.78;100.00
16016;BME280;8112;53.592;10.184;2023-03-14T08:17:46;98309.97;;;10.73;100.00
16016;BME280;8112;53.592;10.184;2023-03-14T08:22:53;98292.19;;;10.93;100.00
16016;BME280;8112;53.592;10.184;2023-03-14T08:27:56;98286.75;;;11.39;100.00
16016;BME280;8112;53.592;10.184;2023-03-14T08:32:58;98287.94;;;11.45;100.00
16016;BME280;8112;53.592;10.184;2023-03-14T08:38:01;98267.41;;;11.65;100.00
16016;BME280;8112;53.592;10.184;2023-03-14T08:43:03;98283.94;;;11.40;100.00
16016;BME280;8112;53.592;10.184;2023-03-14T08:48:05;98278.69;;;11.83;100.00
16016;BME280;8112;53.592;10.184;2023-03-14T08:53:08;98281.13;;;11.77;100.00
16016;BME280;8112;53.592;10.184;2023-03-14T08:58:10;98270.38;;;11.70;100.00
16016;BME280;8112;53.592;10.184;2023-03-14T09:03:11;98269.13;;;11.82;100.00
16016;BME280;8112;53.592;10.184;2023-03-14T09:08:14;98281.22;;;11.59;100.00
16016;BME280;8112;53.592;10.184;2023-03-14T09:13:16;98279.34;;;11.16;100.00
16016;BME280;8112;53.592;10.184;2023-03-14T09:18:18;98277.59;;;10.98;100.00
16016;BME280;8112;53.592;10.184;2023-03-14T09:23:21;98269.06;;;11.05;100.00
16016;BME280;8112;53.592;10.184;2023-03-14T09:28:23;98283.94;;;11.14;100.00
16016;BME280;8112;53.592;10.184;2023-03-14T09:33:24;98280.59;;;11.04;100.00
16016;BME280;8112;53.592;10.184;2023-03-14T09:38:28;98288.13;;;10.98;100.00
16016;BME280;8112;53.592;10.184;2023-03-14T09:43:31;98299.81;;;11.22;100.00
16016;BME280;8112;53.592;10.184;2023-03-14T09:48:34;98306.44;;;11.26;100.00
16016;BME280;8112;53.592;10.184;2023-03-14T09:53:40;98306.88;;;11.22;100.00
16016;BME280;8112;53.592;10.184;2023-03-14T09:58:45;98331.19;;;10.53;100.00
16016;BME280;8112;53.592;10.184;2023-03-14T10:03:47;98335.56;;;10.44;100.00
16016;BME280;8112;53.592;10.184;2023-03-14T10:08:50;98368.25;;;10.13;100.00
16016;BME280;8112;53.592;10.184;2023-03-14T10:14:06;98418.31;;;8.97;100.00
16016;BME280;8112;53.592;10.184;2023-03-14T10:19:11;98441.22;;;8.24;100.00
16016;BME280;8112;53.592;10.184;2023-03-14T10:24:21;98464.94;;;7.92;100.00
16016;BME280;8112;53.592;10.184;2023-03-14T10:29:24;98492.00;;;7.71;100.00
16016;BME280;8112;53.592;10.184;2023-03-14T10:34:27;98514.78;;;7.38;100.00
16016;BME280;8112;53.592;10.184;2023-03-14T10:39:38;98535.72;;;7.05;100.00
16016;BME280;8112;53.592;10.184;2023-03-14T10:44:44;98567.28;;;6.69;100.00
16016;BME280;8112;53.592;10.184;2023-03-14T10:49:46;98615.53;;;6.31;100.00
16016;BME280;8112;53.592;10.184;2023-03-14T10:54:54;98628.69;;;5.58;100.00
16016;BME280;8112;53.592;10.184;2023-03-14T10:59:57;98669.91;;;5.28;100.00
16016;BME280;8112;53.592;10.184;2023-03-14T11:05:07;98679.47;;;5.04;100.00
16016;BME280;8112;53.592;10.184;2023-03-14T11:10:19;98702.44;;;4.98;100.00
16016;BME280;8112;53.592;10.184;2023-03-14T11:15:27;98731.34;;;4.69;100.00
16016;BME280;8112;53.592;10.184;2023-03-14T11:20:35;98761.09;;;4.80;100.00
16016;BME280;8112;53.592;10.184;2023-03-14T11:25:45;98782.22;;;4.49;100.00
16016;BME280;8112;53.592;10.184;2023-03-14T11:30:52;98779.44;;;4.25;100.00
16016;BME280;8112;53.592;10.184;2023-03-14T11:35:58;98815.09;;;4.24;100.00
16016;BME280;8112;53.592;10.184;2023-03-14T11:41:10;98826.00;;;4.44;100.00
16016;BME280;8112;53.592;10.184;2023-03-14T11:46:17;98852.75;;;4.48;100.00
16016;BME280;8112;53.592;10.184;2023-03-14T11:51:25;98869.72;;;4.95;100.00
16016;BME280;8112;53.592;10.184;2023-03-14T11:56:33;98870.66;;;4.94;100.00
16016;BME280;8112;53.592;10.184;2023-03-14T12:01:52;98875.91;;;5.46;100.00
16016;BME280;8112;53.592;10.184;2023-03-14T12:06:55;98878.84;;;5.67;100.00
16016;BME280;8112;53.592;10.184;2023-03-14T12:12:02;98868.09;;;5.59;100.00
16016;BME280;8112;53.592;10.184;2023-03-14T12:17:06;98879.38;;;5.34;100.00
16016;BME280;8112;53.592;10.184;2023-03-14T12:22:23;98883.00;;;5.18;100.00
16016;BME280;8112;53.592;10.184;2023-03-14T12:27:48;98913.00;;;5.25;100.00
16016;BME280;8112;53.592;10.184;2023-03-14T12:38:37;98932.03;;;5.40;100.00
16016;BME280;8112;53.592;10.184;2023-03-14T12:43:44;98946.06;;;5.52;100.00
16016;BME280;8112;53.592;10.184;2023-03-14T12:48:47;98943.03;;;5.84;100.00
16016;BME280;8112;53.592;10.184;2023-03-14T12:59:31;98965.00;;;5.95;100.00
16016;BME280;8112;53.592;10.184;2023-03-14T13:04:35;99000.53;;;5.84;100.00
16016;BME280;8112;53.592;10.184;2023-03-14T13:10:00;99012.13;;;5.67;100.00
16016;BME280;8112;53.592;10.184;2023-03-14T13:15:15;99025.34;;;5.92;100.00
16016;BME280;8112;53.592;10.184;2023-03-14T13:20:23;99033.13;;;6.32;100.00
16016;BME280;8112;53.592;10.184;2023-03-14T13:25:30;99045.16;;;6.48;100.00
16016;BME280;8112;53.592;10.184;2023-03-14T13:30:40;99056.50;;;6.85;100.00
16016;BME280;8112;53.592;10.184;2023-03-14T13:35:44;99067.25;;;7.07;100.00
16016;BME280;8112;53.592;10.184;2023-03-14T13:40:47;99068.38;;;7.40;100.00
16016;BME280;8112;53.592;10.184;2023-03-14T13:45:53;99075.22;;;7.05;100.00
16016;BME280;8112;53.592;10.184;2023-03-14T13:50:59;99099.53;;;6.94;100.00
16016;BME280;8112;53.592;10.184;2023-03-14T13:56:03;99116.56;;;7.13;100.00
16016;BME280;8112;53.592;10.184;2023-03-14T14:01:13;99115.34;;;6.93;100.00
16016;BME280;8112;53.592;10.184;2023-03-14T14:06:31;99142.03;;;7.11;100.00
16016;BME280;8112;53.592;10.184;2023-03-14T14:11:38;99161.75;;;6.91;100.00
16016;BME280;8112;53.592;10.184;2023-03-14T14:16:44;99166.56;;;6.58;100.00
16016;BME280;8112;53.592;10.184;2023-03-14T14:21:48;99180.19;;;6.76;100.00
16016;BME280;8112;53.592;10.184;2023-03-14T14:26:50;99194.88;;;6.79;100.00
16016;BME280;8112;53.592;10.184;2023-03-14T14:32:02;99193.19;;;6.78;100.00
16016;BME280;8112;53.592;10.184;2023-03-14T14:37:04;99209.38;;;6.57;100.00
16016;BME280;8112;53.592;10.184;2023-03-14T14:42:13;99217.50;;;6.39;100.00
16016;BME280;8112;53.592;10.184;2023-03-14T14:47:18;99262.41;;;6.33;100.00
16016;BME280;8112;53.592;10.184;2023-03-14T14:52:31;99261.97;;;6.26;100.00
16016;BME280;8112;53.592;10.184;2023-03-14T14:57:38;99283.97;;;6.77;100.00
16016;BME280;8112;53.592;10.184;2023-03-14T15:02:45;99284.00;;;7.03;100.00
16016;BME280;8112;53.592;10.184;2023-03-14T15:07:48;99287.47;;;7.17;95.32
16016;BME280;8112;53.592;10.184;2023-03-14T15:12:50;99311.13;;;6.89;86.99
16016;BME280;8112;53.592;10.184;2023-03-14T15:17:53;99316.13;;;6.39;87.84
16016;BME280;8112;53.592;10.184;2023-03-14T15:22:55;99328.59;;;6.48;91.32
16016;BME280;8112;53.592;10.184;2023-03-14T15:27:57;99368.75;;;6.20;91.64
16016;BME280;8112;53.592;10.184;2023-03-14T15:33:00;99373.13;;;6.34;97.58
16016;BME280;8112;53.592;10.184;2023-03-14T15:38:01;99379.00;;;6.37;100.00
16016;BME280;8112;53.592;10.184;2023-03-14T15:43:03;99399.69;;;6.82;100.00
16016;BME280;8112;53.592;10.184;2023-03-14T15:48:08;99408.53;;;6.67;100.00
16016;BME280;8112;53.592;10.184;2023-03-14T15:53:14;99445.69;;;6.59;100.00
16016;BME280;8112;53.592;10.184;2023-03-14T15:58:18;99446.19;;;6.51;99.09
16016;BME280;8112;53.592;10.184;2023-03-14T16:03:22;99462.19;;;6.18;98.24
16016;BME280;8112;53.592;10.184;2023-03-14T16:08:23;99476.16;;;5.88;95.74
16016;BME280;8112;53.592;10.184;2023-03-14T16:13:26;99481.19;;;5.91;98.30
16016;BME280;8112;53.592;10.184;2023-03-14T16:18:32;99489.97;;;5.90;99.58
16016;BME280;8112;53.592;10.184;2023-03-14T16:23:34;99504.47;;;5.95;100.00
16016;BME280;8112;53.592;10.184;2023-03-14T16:28:36;99504.88;;;6.04;100.00
16016;BME280;8112;53.592;10.184;2023-03-14T16:33:39;99537.69;;;5.93;100.00
16016;BME280;8112;53.592;10.184;2023-03-14T16:38:42;99546.59;;;5.44;100.00
16016;BME280;8112;53.592;10.184;2023-03-14T16:43:44;99549.34;;;5.10;100.00
16016;BME280;8112;53.592;10.184;2023-03-14T16:48:52;99556.25;;;4.95;100.00
16016;BME280;8112;53.592;10.184;2023-03-14T16:53:54;99567.06;;;4.71;100.00
16016;BME280;8112;53.592;10.184;2023-03-14T16:58:55;99582.84;;;4.70;100.00
16016;BME280;8112;53.592;10.184;2023-03-14T17:03:58;99593.16;;;4.55;100.00
16016;BME280;8112;53.592;10.184;2023-03-14T17:09:00;99609.38;;;4.45;100.00
16016;BME280;8112;53.592;10.184;2023-03-14T17:14:03;99623.78;;;4.34;100.00
16016;BME280;8112;53.592;10.184;2023-03-14T17:19:07;99642.13;;;4.15;100.00
16016;BME280;8112;53.592;10.184;2023-03-14T17:24:08;99666.75;;;4.09;100.00
16016;BME280;8112;53.592;10.184;2023-03-14T17:29:10;99685.00;;;4.09;100.00
16016;BME280;8112;53.592;10.184;2023-03-14T17:34:13;99688.28;;;3.95;100.00
16016;BME280;8112;53.592;10.184;2023-03-14T17:39:15;99706.81;;;3.89;100.00
16016;BME280;8112;53.592;10.184;2023-03-14T17:44:17;99707.81;;;3.87;100.00
16016;BME280;8112;53.592;10.184;2023-03-14T17:49:20;99723.97;;;3.93;100.00
16016;BME280;8112;53.592;10.184;2023-03-14T17:54:21;99737.56;;;4.00;100.00
16016;BME280;8112;53.592;10.184;2023-03-14T17:59:23;99764.00;;;3.92;100.00
16016;BME280;8112;53.592;10.184;2023-03-14T18:04:26;99774.66;;;3.68;100.00
16016;BME280;8112;53.592;10.184;2023-03-14T18:09:28;99780.06;;;3.64;100.00
16016;BME280;8112;53.592;10.184;2023-03-14T18:14:29;99793.66;;;3.51;100.00
16016;BME280;8112;53.592;10.184;2023-03-14T18:19:33;99804.13;;;3.50;100.00
16016;BME280;8112;53.592;10.184;2023-03-14T18:24:34;99815.50;;;3.68;100.00
16016;BME280;8112;53.592;10.184;2023-03-14T18:29:36;99829.09;;;3.75;100.00
16016;BME280;8112;53.592;10.184;2023-03-14T18:34:39;99835.84;;;3.60;100.00
16016;BME280;8112;53.592;10.184;2023-03-14T18:39:42;99842.75;;;3.61;100.00
16016;BME280;8112;53.592;10.184;2023-03-14T18:44:43;99877.25;;;3.66;100.00
16016;BME280;8112;53.592;10.184;2023-03-14T18:49:46;99895.59;;;3.23;100.00
16016;BME280;8112;53.592;10.184;2023-03-14T18:54:48;99874.78;;;2.35;100.00
16016;BME280;8112;53.592;10.184;2023-03-14T18:59:50;99897.75;;;2.00;100.00
16016;BME280;8112;53.592;10.184;2023-03-14T19:04:57;99904.19;;;1.90;100.00
16016;BME280;8112;53.592;10.184;2023-03-14T19:09:59;99921.78;;;1.81;100.00
16016;BME280;8112;53.592;10.184;2023-03-14T19:15:01;99931.28;;;1.82;100.00
16016;BME280;8112;53.592;10.184;2023-03-14T19:20:05;99946.19;;;1.77;100.00
16016;BME280;8112;53.592;10.184;2023-03-14T19:25:09;99950.47;;;1.78;100.00
16016;BME280;8112;53.592;10.184;2023-03-14T19:30:11;99961.34;;;1.90;100.00
16016;BME280;8112;53.592;10.184;2023-03-14T19:35:14;99971.41;;;1.99;100.00
16016;BME280;8112;53.592;10.184;2023-03-14T19:40:16;99979.72;;;2.09;100.00
16016;BME280;8112;53.592;10.184;2023-03-14T19:45:18;99980.81;;;2.03;100.00
16016;BME280;8112;53.592;10.184;2023-03-14T19:50:21;99985.56;;;2.16;100.00
16016;BME280;8112;53.592;10.184;2023-03-14T19:55:24;99990.75;;;2.16;100.00
16016;BME280;8112;53.592;10.184;2023-03-14T20:00:26;100002.28;;;2.32;100.00
16016;BME280;8112;53.592;10.184;2023-03-14T20:05:29;100004.38;;;2.22;100.00
16016;BME280;8112;53.592;10.184;2023-03-14T20:10:31;100017.91;;;2.32;100.00
16016;BME280;8112;53.592;10.184;2023-03-14T20:15:32;100021.97;;;2.39;100.00
16016;BME280;8112;53.592;10.184;2023-03-14T20:20:38;100029.44;;;2.49;100.00
16016;BME280;8112;53.592;10.184;2023-03-14T20:25:40;100042.44;;;2.49;100.00
16016;BME280;8112;53.592;10.184;2023-03-14T20:30:44;100071.13;;;2.71;100.00
16016;BME280;8112;53.592;10.184;2023-03-14T20:35:53;100103.03;;;2.51;100.00
16016;BME280;8112;53.592;10.184;2023-03-14T20:40:56;100125.19;;;1.58;100.00
16016;BME280;8112;53.592;10.184;2023-03-14T20:45:59;100105.63;;;1.18;100.00
16016;BME280;8112;53.592;10.184;2023-03-14T20:51:03;100129.84;;;1.18;100.00
16016;BME280;8112;53.592;10.184;2023-03-14T20:56:07;100135.97;;;1.16;100.00
16016;BME280;8112;53.592;10.184;2023-03-14T21:01:08;100149.63;;;1.22;100.00
16016;BME280;8112;53.592;10.184;2023-03-14T21:06:12;100155.09;;;1.13;100.00
16016;BME280;8112;53.592;10.184;2023-03-14T21:11:14;100153.41;;;1.12;100.00
16016;BME280;8112;53.592;10.184;2023-03-14T21:16:15;100154.34;;;1.08;100.00
16016;BME280;8112;53.592;10.184;2023-03-14T21:21:19;100158.66;;;1.09;100.00
16016;BME280;8112;53.592;10.184;2023-03-14T21:26:21;100165.63;;;1.07;100.00
16016;BME280;8112;53.592;10.184;2023-03-14T21:31:23;100184.59;;;1.09;100.00
16016;BME280;8112;53.592;10.184;2023-03-14T21:36:26;100198.53;;;1.06;100.00
16016;BME280;8112;53.592;10.184;2023-03-14T21:41:28;100207.16;;;1.07;100.00
16016;BME280;8112;53.592;10.184;2023-03-14T21:46:30;100213.91;;;1.12;100.00
16016;BME280;8112;53.592;10.184;2023-03-14T21:51:33;100213.81;;;1.17;100.00
16016;BME280;8112;53.592;10.184;2023-03-14T21:56:35;100219.00;;;1.17;100.00
16016;BME280;8112;53.592;10.184;2023-03-14T22:01:37;100225.69;;;1.24;100.00
16016;BME280;8112;53.592;10.184;2023-03-14T22:06:40;100224.81;;;1.25;100.00
16016;BME280;8112;53.592;10.184;2023-03-14T22:11:47;100234.06;;;1.34;100.00
16016;BME280;8112;53.592;10.184;2023-03-14T22:16:49;100235.47;;;1.46;100.00
16016;BME280;8112;53.592;10.184;2023-03-14T22:21:52;100248.63;;;1.70;100.00
16016;BME280;8112;53.592;10.184;2023-03-14T22:26:54;100264.41;;;1.32;100.00
16016;BME280;8112;53.592;10.184;2023-03-14T22:31:56;100259.56;;;0.88;100.00
16016;BME280;8112;53.592;10.184;2023-03-14T22:37:00;100252.25;;;1.03;100.00
16016;BME280;8112;53.592;10.184;2023-03-14T22:42:02;100249.03;;;0.94;100.00
16016;BME280;8112;53.592;10.184;2023-03-14T22:47:04;100257.63;;;0.96;100.00
16016;BME280;8112;53.592;10.184;2023-03-14T22:52:08;100259.31;;;0.97;100.00
16016;BME280;8112;53.592;10.184;2023-03-14T22:57:10;100280.06;;;0.97;100.00
16016;BME280;8112;53.592;10.184;2023-03-14T23:02:11;100286.88;;;1.02;100.00
16016;BME280;8112;53.592;10.184;2023-03-14T23:07:17;100292.19;;;0.97;100.00
16016;BME280;8112;53.592;10.184;2023-03-14T23:12:19;100305.81;;;1.05;100.00
16016;BME280;8112;53.592;10.184;2023-03-14T23:17:23;100308.50;;;1.02;100.00
16016;BME280;8112;53.592;10.184;2023-03-14T23:22:26;100317.19;;;1.01;100.00
16016;BME280;8112;53.592;10.184;2023-03-14T23:27:32;100330.63;;;1.16;100.00
16016;BME280;8112;53.592;10.184;2023-03-14T23:32:33;100336.59;;;1.19;100.00
16016;BME280;8112;53.592;10.184;2023-03-14T23:37:37;100345.50;;;1.09;100.00
16016;BME280;8112;53.592;10.184;2023-03-14T23:42:38;100340.31;;;0.74;100.00
16016;BME280;8112;53.592;10.184;2023-03-14T23:47:40;100335.28;;;0.68;100.00
16016;BME280;8112;53.592;10.184;2023-03-14T23:52:44;100345.66;;;0.68;100.00
16016;BME280;8112;53.592;10.184;2023-03-14T23:57:45;100344.72;;;0.70;100.00
